GLD965 MDPP-MYNN
Flight info
| Callsign | GLD965 |
|---|---|
| Flight time | N/A |
| Altitude | 30000 |
| Route | MALVN3C MALVN Y396 RUMFO DCT ZQA136085 DCT BOSAR |
| Aircraft | A320/M-SDE3FGHIRWY/LB1 |
Departure
| Time | 2026-05-05 23:18 |
|---|---|
| Airport | Gregorio Luperon International Airport (MDPP) |
Arrival
| Time | N/A |
|---|---|
| Airport | Lynden Pindling International Airport (MYNN) |
| Time | Latitude | Longitude | Altitude | Speed | Heading |
|---|---|---|---|---|---|
| 2026-05-05 22:54 | 19.75663 | -70.56533 | 25 ft | 0 kts | 162° |
| 2026-05-05 23:10 | 19.75660 | -70.56533 | 25 ft | 2 kts | 172° |
| 2026-05-05 23:10 | 19.75659 | -70.56547 | 30 ft | 5 kts | 275° |
| 2026-05-05 23:10 | 19.75652 | -70.56608 | 27 ft | 12 kts | 257° |
| 2026-05-05 23:11 | 19.75624 | -70.56706 | 26 ft | 16 kts | 251° |
| 2026-05-05 23:11 | 19.75584 | -70.56829 | 26 ft | 19 kts | 252° |
| 2026-05-05 23:11 | 19.75542 | -70.56977 | 29 ft | 22 kts | 253° |
| 2026-05-05 23:11 | 19.75571 | -70.57096 | 28 ft | 18 kts | 319° |
| 2026-05-05 23:12 | 19.75640 | -70.57172 | 24 ft | 14 kts | 310° |
| 2026-05-05 23:12 | 19.75648 | -70.57181 | 25 ft | 0 kts | 315° |
| 2026-05-05 23:15 | 19.75698 | -70.57272 | 23 ft | 22 kts | 271° |
| 2026-05-05 23:15 | 19.75649 | -70.57464 | 24 ft | 35 kts | 252° |
| 2026-05-05 23:15 | 19.75562 | -70.57721 | 25 ft | 38 kts | 249° |
| 2026-05-05 23:16 | 19.75490 | -70.57989 | 26 ft | 36 kts | 260° |
| 2026-05-05 23:16 | 19.75422 | -70.58246 | 27 ft | 37 kts | 250° |
| 2026-05-05 23:16 | 19.75370 | -70.58394 | 26 ft | 2 kts | 290° |
| 2026-05-05 23:16 | 19.75381 | -70.58387 | 26 ft | 3 kts | 64° |
| 2026-05-05 23:17 | 19.75394 | -70.58344 | 26 ft | 7 kts | 74° |
| 2026-05-05 23:17 | 19.75444 | -70.58154 | 27 ft | 67 kts | 73° |
| 2026-05-05 23:17 | 19.75666 | -70.57404 | 23 ft | 142 kts | 72° |
| 2026-05-05 23:17 | 19.76008 | -70.56269 | 472 ft | 166 kts | 73° |
| 2026-05-05 23:18 | 19.76389 | -70.55023 | 1122 ft | 193 kts | 76° |
| 2026-05-05 23:18 | 19.76796 | -70.53581 | 1787 ft | 215 kts | 76° |
| 2026-05-05 23:18 | 19.77258 | -70.51970 | 2459 ft | 242 kts | 77° |
| 2026-05-05 23:18 | 19.78022 | -70.50337 | 3434 ft | 260 kts | 51° |
| 2026-05-05 23:19 | 19.79492 | -70.49177 | 4541 ft | 272 kts | 23° |
| 2026-05-05 23:19 | 19.81392 | -70.48760 | 5219 ft | 291 kts | 359° |
| 2026-05-05 23:19 | 19.83510 | -70.48869 | 5621 ft | 319 kts | 356° |
| 2026-05-05 23:19 | 19.85835 | -70.48833 | 5853 ft | 350 kts | 4° |
| 2026-05-05 23:20 | 19.88216 | -70.48468 | 5975 ft | 335 kts | 11° |
| 2026-05-05 23:20 | 19.90427 | -70.47909 | 6014 ft | 321 kts | 14° |
| 2026-05-05 23:20 | 19.92667 | -70.47441 | 6322 ft | 320 kts | 6° |
| 2026-05-05 23:20 | 19.94813 | -70.47293 | 6466 ft | 300 kts | 1° |
| 2026-05-05 23:21 | 19.96839 | -70.47246 | 6748 ft | 282 kts | 352° |
| 2026-05-05 23:21 | 19.98670 | -70.47941 | 7396 ft | 280 kts | 323° |
| 2026-05-05 23:21 | 19.99974 | -70.49419 | 8379 ft | 276 kts | 298° |
| 2026-05-05 23:21 | 20.00549 | -70.51358 | 9153 ft | 278 kts | 273° |
| 2026-05-05 23:22 | 20.00637 | -70.53398 | 9970 ft | 281 kts | 269° |
| 2026-05-05 23:22 | 20.00659 | -70.55478 | 10797 ft | 282 kts | 269° |
| 2026-05-05 23:22 | 20.00679 | -70.57627 | 11376 ft | 301 kts | 269° |
| 2026-05-05 23:22 | 20.00716 | -70.59917 | 11727 ft | 324 kts | 270° |
| 2026-05-05 23:23 | 20.00775 | -70.62396 | 12153 ft | 343 kts | 270° |
| 2026-05-05 23:23 | 20.00848 | -70.64950 | 13029 ft | 345 kts | 271° |
| 2026-05-05 23:23 | 20.00898 | -70.66640 | 13661 ft | 347 kts | 271° |
| 2026-05-05 23:23 | 20.00974 | -70.69228 | 14457 ft | 351 kts | 271° |
| 2026-05-05 23:24 | 20.01051 | -70.71837 | 15279 ft | 354 kts | 271° |
| 2026-05-05 23:24 | 20.01153 | -70.75322 | 16363 ft | 358 kts | 271° |
| 2026-05-05 23:24 | 20.01205 | -70.77117 | 16943 ft | 359 kts | 271° |
| 2026-05-05 23:24 | 20.01282 | -70.79780 | 17790 ft | 362 kts | 271° |
| 2026-05-05 23:25 | 20.01384 | -70.83350 | 18805 ft | 366 kts | 271° |
| 2026-05-05 23:25 | 20.01434 | -70.85146 | 19206 ft | 370 kts | 271° |
| 2026-05-05 23:25 | 20.01511 | -70.87897 | 19847 ft | 374 kts | 271° |
| 2026-05-05 23:25 | 20.01588 | -70.90683 | 20418 ft | 379 kts | 271° |
| 2026-05-05 23:26 | 20.01667 | -70.93510 | 20983 ft | 383 kts | 271° |
| 2026-05-05 23:26 | 20.01745 | -70.96356 | 21523 ft | 387 kts | 272° |
| 2026-05-05 23:26 | 20.01824 | -70.99240 | 22049 ft | 392 kts | 272° |
| 2026-05-05 23:26 | 20.01903 | -71.02153 | 22575 ft | 395 kts | 272° |
| 2026-05-05 23:27 | 20.01981 | -71.05047 | 23072 ft | 399 kts | 272° |
| 2026-05-05 23:27 | 20.02075 | -71.08006 | 23553 ft | 402 kts | 275° |
| 2026-05-05 23:27 | 20.02614 | -71.10936 | 23968 ft | 404 kts | 288° |
| 2026-05-05 23:27 | 20.03799 | -71.13647 | 24384 ft | 407 kts | 301° |
| 2026-05-05 23:28 | 20.05576 | -71.16000 | 24804 ft | 410 kts | 315° |
| 2026-05-05 23:28 | 20.07853 | -71.17852 | 25206 ft | 415 kts | 327° |
| 2026-05-05 23:28 | 20.10354 | -71.19424 | 25572 ft | 417 kts | 327° |
| 2026-05-05 23:28 | 20.12825 | -71.20976 | 25910 ft | 420 kts | 327° |
| 2026-05-05 23:29 | 20.15356 | -71.22570 | 26258 ft | 421 kts | 327° |
| 2026-05-05 23:29 | 20.17883 | -71.24167 | 26616 ft | 423 kts | 327° |
| 2026-05-05 23:29 | 20.20421 | -71.25773 | 26950 ft | 425 kts | 327° |
| 2026-05-05 23:29 | 20.22963 | -71.27384 | 27272 ft | 427 kts | 326° |
| 2026-05-05 23:30 | 20.25520 | -71.29006 | 27607 ft | 428 kts | 326° |
| 2026-05-05 23:30 | 20.28083 | -71.30632 | 27932 ft | 430 kts | 326° |
| 2026-05-05 23:30 | 20.30660 | -71.32267 | 28240 ft | 432 kts | 326° |
| 2026-05-05 23:30 | 20.33215 | -71.33888 | 28537 ft | 433 kts | 326° |
| 2026-05-05 23:31 | 20.35817 | -71.35541 | 28845 ft | 435 kts | 326° |
| 2026-05-05 23:31 | 20.38417 | -71.37206 | 29144 ft | 436 kts | 324° |
| 2026-05-05 23:31 | 20.40883 | -71.39078 | 29421 ft | 435 kts | 318° |
| 2026-05-05 23:31 | 20.43145 | -71.41221 | 29704 ft | 435 kts | 313° |
| 2026-05-05 23:32 | 20.45186 | -71.43593 | 29970 ft | 435 kts | 308° |
| 2026-05-05 23:32 | 20.47174 | -71.46067 | 30034 ft | 441 kts | 308° |
| 2026-05-05 23:32 | 20.51169 | -71.51001 | 30040 ft | 441 kts | 309° |
| 2026-05-05 23:33 | 20.55185 | -71.55956 | 30037 ft | 440 kts | 309° |
| 2026-05-05 23:33 | 20.59191 | -71.60908 | 30036 ft | 440 kts | 309° |
| 2026-05-05 23:34 | 20.63203 | -71.65873 | 30040 ft | 444 kts | 309° |
| 2026-05-05 23:34 | 20.67267 | -71.70907 | 30039 ft | 447 kts | 309° |
| 2026-05-05 23:35 | 20.71301 | -71.75907 | 30037 ft | 446 kts | 309° |
| 2026-05-05 23:35 | 20.75349 | -71.80932 | 30038 ft | 446 kts | 309° |
| 2026-05-05 23:36 | 20.79400 | -71.85965 | 30038 ft | 446 kts | 309° |
| 2026-05-05 23:36 | 20.83450 | -71.91002 | 30040 ft | 445 kts | 309° |
| 2026-05-05 23:37 | 20.87486 | -71.96027 | 30042 ft | 445 kts | 309° |
| 2026-05-05 23:37 | 20.91517 | -72.01051 | 30041 ft | 445 kts | 309° |
| 2026-05-05 23:38 | 20.95520 | -72.06044 | 30040 ft | 444 kts | 309° |
| 2026-05-05 23:38 | 20.99547 | -72.11071 | 30041 ft | 445 kts | 309° |
| 2026-05-05 23:39 | 21.03566 | -72.16093 | 30037 ft | 444 kts | 309° |
| 2026-05-05 23:39 | 21.07594 | -72.21130 | 30039 ft | 444 kts | 309° |
| 2026-05-05 23:40 | 21.11615 | -72.26163 | 30039 ft | 444 kts | 309° |
| 2026-05-05 23:40 | 21.15606 | -72.31162 | 30041 ft | 444 kts | 309° |
| 2026-05-05 23:41 | 21.19615 | -72.36189 | 30042 ft | 443 kts | 309° |
| 2026-05-05 23:41 | 21.23625 | -72.41223 | 30040 ft | 443 kts | 309° |
| 2026-05-05 23:42 | 21.27626 | -72.46249 | 30045 ft | 443 kts | 309° |
| 2026-05-05 23:42 | 21.31629 | -72.51283 | 30047 ft | 443 kts | 309° |
| 2026-05-05 23:43 | 21.35627 | -72.56314 | 30049 ft | 442 kts | 309° |
| 2026-05-05 23:43 | 21.39594 | -72.61311 | 30046 ft | 442 kts | 309° |
| 2026-05-05 23:44 | 21.43588 | -72.66347 | 30048 ft | 442 kts | 309° |
| 2026-05-05 23:44 | 21.47566 | -72.71367 | 30044 ft | 442 kts | 309° |
| 2026-05-05 23:45 | 21.51548 | -72.76397 | 30048 ft | 441 kts | 309° |
| 2026-05-05 23:45 | 21.55523 | -72.81422 | 30049 ft | 441 kts | 309° |
| 2026-05-05 23:46 | 21.59495 | -72.86448 | 30049 ft | 441 kts | 309° |
| 2026-05-05 23:46 | 21.63466 | -72.91478 | 30052 ft | 441 kts | 309° |
| 2026-05-05 23:47 | 21.67432 | -72.96506 | 30054 ft | 440 kts | 309° |
| 2026-05-05 23:47 | 21.71368 | -73.01501 | 30054 ft | 440 kts | 309° |
| 2026-05-05 23:48 | 21.75332 | -73.06535 | 30052 ft | 440 kts | 309° |
| 2026-05-05 23:48 | 21.79285 | -73.11561 | 30052 ft | 440 kts | 309° |
| 2026-05-05 23:49 | 21.83238 | -73.16592 | 30053 ft | 439 kts | 309° |
| 2026-05-05 23:49 | 21.87188 | -73.21623 | 30052 ft | 440 kts | 309° |
| 2026-05-05 23:50 | 21.91114 | -73.26628 | 30049 ft | 439 kts | 309° |
| 2026-05-05 23:50 | 21.95058 | -73.31661 | 30050 ft | 439 kts | 309° |
| 2026-05-05 23:51 | 21.99001 | -73.36698 | 30054 ft | 439 kts | 309° |
| 2026-05-05 23:51 | 22.02933 | -73.41725 | 30053 ft | 439 kts | 309° |
| 2026-05-05 23:52 | 22.06865 | -73.46756 | 30053 ft | 438 kts | 309° |
| 2026-05-05 23:52 | 22.10797 | -73.51794 | 30052 ft | 438 kts | 309° |
| 2026-05-05 23:53 | 22.14723 | -73.56828 | 30049 ft | 438 kts | 309° |
| 2026-05-05 23:53 | 22.18620 | -73.61828 | 30056 ft | 438 kts | 309° |
| 2026-05-05 23:54 | 22.22538 | -73.66861 | 30056 ft | 438 kts | 309° |
| 2026-05-05 23:54 | 22.26453 | -73.71895 | 30045 ft | 437 kts | 309° |
| 2026-05-05 23:55 | 22.30365 | -73.76930 | 30059 ft | 437 kts | 309° |
| 2026-05-05 23:55 | 22.34271 | -73.81962 | 30048 ft | 437 kts | 309° |
| 2026-05-05 23:56 | 22.38174 | -73.86995 | 30061 ft | 436 kts | 309° |
| 2026-05-05 23:56 | 22.42047 | -73.91994 | 30051 ft | 436 kts | 309° |
| 2026-05-05 23:57 | 22.45939 | -73.97024 | 30058 ft | 436 kts | 309° |
| 2026-05-05 23:57 | 22.49833 | -74.02059 | 30048 ft | 436 kts | 309° |
| 2026-05-05 23:58 | 22.53725 | -74.07097 | 30063 ft | 436 kts | 309° |
| 2026-05-05 23:58 | 22.57614 | -74.12136 | 30054 ft | 435 kts | 309° |
| 2026-05-05 23:59 | 22.61494 | -74.17169 | 30066 ft | 435 kts | 309° |
| 2026-05-05 23:59 | 22.65352 | -74.22177 | 30056 ft | 435 kts | 309° |
| 2026-05-06 00:00 | 22.69228 | -74.27215 | 30055 ft | 435 kts | 309° |
| 2026-05-06 00:00 | 22.73101 | -74.32252 | 30059 ft | 435 kts | 309° |
| 2026-05-06 00:01 | 22.76970 | -74.37290 | 30063 ft | 435 kts | 309° |
| 2026-05-06 00:01 | 22.80816 | -74.42302 | 30062 ft | 435 kts | 309° |
| 2026-05-06 00:02 | 22.84687 | -74.47351 | 30057 ft | 435 kts | 309° |
| 2026-05-06 00:02 | 22.88555 | -74.52403 | 30051 ft | 434 kts | 309° |
| 2026-05-06 00:03 | 22.92421 | -74.57456 | 30049 ft | 435 kts | 309° |
| 2026-05-06 00:03 | 22.96251 | -74.62468 | 30058 ft | 434 kts | 309° |
| 2026-05-06 00:04 | 23.00112 | -74.67524 | 30054 ft | 434 kts | 309° |
| 2026-05-06 00:04 | 23.03963 | -74.72573 | 30054 ft | 434 kts | 309° |
| 2026-05-06 00:05 | 23.09745 | -74.80163 | 30055 ft | 434 kts | 309° |
| 2026-05-06 00:06 | 23.13570 | -74.85189 | 30053 ft | 434 kts | 309° |
| 2026-05-06 00:06 | 23.17414 | -74.90245 | 30051 ft | 434 kts | 309° |
| 2026-05-06 00:07 | 23.21263 | -74.95313 | 30049 ft | 434 kts | 309° |
| 2026-05-06 00:07 | 23.25101 | -75.00373 | 30047 ft | 433 kts | 309° |
| 2026-05-06 00:08 | 23.28937 | -75.05433 | 30053 ft | 434 kts | 309° |
| 2026-05-06 00:08 | 23.32744 | -75.10462 | 30066 ft | 433 kts | 309° |
| 2026-05-06 00:09 | 23.36582 | -75.15536 | 30066 ft | 433 kts | 309° |
| 2026-05-06 00:09 | 23.40416 | -75.20610 | 30054 ft | 433 kts | 309° |
| 2026-05-06 00:10 | 23.44238 | -75.25668 | 30069 ft | 433 kts | 310° |
| 2026-05-06 00:10 | 23.46416 | -75.27921 | 30054 ft | 434 kts | 321° |
| 2026-05-06 00:10 | 23.48989 | -75.29594 | 30059 ft | 438 kts | 333° |
| 2026-05-06 00:11 | 23.54567 | -75.32292 | 30055 ft | 436 kts | 326° |
| 2026-05-06 00:11 | 23.59175 | -75.36514 | 30056 ft | 433 kts | 312° |
| 2026-05-06 00:12 | 23.63134 | -75.41451 | 30052 ft | 431 kts | 309° |
| 2026-05-06 00:12 | 23.66945 | -75.46464 | 30055 ft | 431 kts | 309° |
| 2026-05-06 00:13 | 23.70786 | -75.51496 | 30056 ft | 431 kts | 309° |
| 2026-05-06 00:13 | 23.74638 | -75.56524 | 30054 ft | 431 kts | 309° |
| 2026-05-06 00:14 | 23.77837 | -75.60701 | 30057 ft | 431 kts | 309° |
| 2026-05-06 00:14 | 23.81685 | -75.65729 | 30051 ft | 431 kts | 309° |
| 2026-05-06 00:15 | 23.85528 | -75.70757 | 30052 ft | 431 kts | 309° |
| 2026-05-06 00:15 | 23.89364 | -75.75780 | 30051 ft | 431 kts | 309° |
| 2026-05-06 00:16 | 23.93200 | -75.80808 | 30051 ft | 430 kts | 309° |
| 2026-05-06 00:16 | 23.97036 | -75.85842 | 30052 ft | 430 kts | 309° |
| 2026-05-06 00:17 | 24.00860 | -75.90865 | 30053 ft | 430 kts | 309° |
| 2026-05-06 00:17 | 24.04666 | -75.95870 | 30052 ft | 430 kts | 309° |
| 2026-05-06 00:18 | 24.08488 | -76.00901 | 30050 ft | 430 kts | 309° |
| 2026-05-06 00:18 | 24.12315 | -76.05944 | 30052 ft | 430 kts | 309° |
| 2026-05-06 00:19 | 24.16133 | -76.10979 | 30050 ft | 430 kts | 309° |
| 2026-05-06 00:19 | 24.19952 | -76.16021 | 30051 ft | 429 kts | 308° |
| 2026-05-06 00:20 | 24.23760 | -76.21055 | 30053 ft | 429 kts | 308° |
| 2026-05-06 00:20 | 24.27550 | -76.26069 | 30050 ft | 429 kts | 308° |
| 2026-05-06 00:21 | 24.31351 | -76.31103 | 30040 ft | 428 kts | 308° |
| 2026-05-06 00:21 | 24.33249 | -76.33620 | 29848 ft | 428 kts | 308° |
| 2026-05-06 00:21 | 24.35142 | -76.36129 | 29577 ft | 427 kts | 308° |
| 2026-05-06 00:21 | 24.37027 | -76.38631 | 29315 ft | 425 kts | 308° |
| 2026-05-06 00:22 | 24.38907 | -76.41126 | 29052 ft | 423 kts | 308° |
| 2026-05-06 00:22 | 24.40778 | -76.43612 | 28795 ft | 422 kts | 308° |
| 2026-05-06 00:22 | 24.42640 | -76.46086 | 28540 ft | 420 kts | 308° |
| 2026-05-06 00:22 | 24.44502 | -76.48562 | 28284 ft | 419 kts | 308° |
| 2026-05-06 00:23 | 24.46354 | -76.51026 | 28023 ft | 418 kts | 308° |
| 2026-05-06 00:23 | 24.48199 | -76.53481 | 27777 ft | 417 kts | 308° |
| 2026-05-06 00:23 | 24.50042 | -76.55936 | 27526 ft | 415 kts | 308° |
| 2026-05-06 00:23 | 24.51880 | -76.58385 | 27279 ft | 414 kts | 308° |
| 2026-05-06 00:24 | 24.53708 | -76.60821 | 27027 ft | 412 kts | 308° |
| 2026-05-06 00:24 | 24.55517 | -76.63234 | 26781 ft | 410 kts | 308° |
| 2026-05-06 00:24 | 24.57337 | -76.65662 | 26544 ft | 411 kts | 308° |
| 2026-05-06 00:24 | 24.59147 | -76.68079 | 26304 ft | 409 kts | 308° |
| 2026-05-06 00:25 | 24.60953 | -76.70491 | 26064 ft | 408 kts | 308° |
| 2026-05-06 00:25 | 24.62737 | -76.72876 | 25835 ft | 407 kts | 308° |
| 2026-05-06 00:25 | 24.64535 | -76.75279 | 25602 ft | 406 kts | 308° |
| 2026-05-06 00:25 | 24.66318 | -76.77676 | 25376 ft | 404 kts | 307° |
| 2026-05-06 00:26 | 24.68088 | -76.80025 | 25251 ft | 392 kts | 309° |
| 2026-05-06 00:26 | 24.69851 | -76.82231 | 25041 ft | 376 kts | 309° |
| 2026-05-06 00:26 | 24.71435 | -76.84482 | 24386 ft | 369 kts | 304° |
| 2026-05-06 00:26 | 24.72930 | -76.86774 | 23564 ft | 367 kts | 304° |
| 2026-05-06 00:27 | 24.74408 | -76.89056 | 22630 ft | 365 kts | 304° |
| 2026-05-06 00:27 | 24.75855 | -76.91349 | 21737 ft | 362 kts | 303° |
| 2026-05-06 00:27 | 24.77268 | -76.93638 | 20899 ft | 360 kts | 303° |
| 2026-05-06 00:27 | 24.78626 | -76.95863 | 20402 ft | 348 kts | 303° |
| 2026-05-06 00:28 | 24.79958 | -76.98059 | 19734 ft | 343 kts | 302° |
| 2026-05-06 00:28 | 24.81292 | -77.00241 | 18957 ft | 343 kts | 306° |
| 2026-05-06 00:28 | 24.82987 | -77.02083 | 18188 ft | 344 kts | 320° |
| 2026-05-06 00:28 | 24.84863 | -77.03701 | 17441 ft | 340 kts | 319° |
| 2026-05-06 00:29 | 24.86627 | -77.05399 | 16812 ft | 333 kts | 314° |
| 2026-05-06 00:29 | 24.88205 | -77.07170 | 16615 ft | 313 kts | 311° |
| 2026-05-06 00:29 | 24.89058 | -77.08212 | 16520 ft | 302 kts | 309° |
| 2026-05-06 00:29 | 24.90386 | -77.09918 | 16370 ft | 283 kts | 308° |
| 2026-05-06 00:30 | 24.91602 | -77.11538 | 16234 ft | 266 kts | 307° |
| 2026-05-06 00:30 | 24.92732 | -77.13064 | 16047 ft | 251 kts | 307° |
| 2026-05-06 00:30 | 24.93819 | -77.14538 | 15614 ft | 247 kts | 307° |
| 2026-05-06 00:30 | 24.94898 | -77.16004 | 15120 ft | 246 kts | 306° |
| 2026-05-06 00:31 | 24.95973 | -77.17461 | 14647 ft | 244 kts | 306° |
| 2026-05-06 00:31 | 24.97035 | -77.18897 | 14419 ft | 238 kts | 306° |
| 2026-05-06 00:31 | 24.98060 | -77.20281 | 14137 ft | 235 kts | 306° |
| 2026-05-06 00:31 | 24.99090 | -77.21675 | 13815 ft | 234 kts | 306° |
| 2026-05-06 00:32 | 25.00121 | -77.23069 | 13455 ft | 233 kts | 306° |
| 2026-05-06 00:32 | 25.01143 | -77.24452 | 13118 ft | 232 kts | 306° |
| 2026-05-06 00:32 | 25.02159 | -77.25827 | 12780 ft | 231 kts | 306° |
| 2026-05-06 00:32 | 25.03171 | -77.27196 | 12454 ft | 229 kts | 306° |
| 2026-05-06 00:33 | 25.04176 | -77.28557 | 12131 ft | 228 kts | 306° |
| 2026-05-06 00:33 | 25.05176 | -77.29910 | 11823 ft | 227 kts | 306° |
| 2026-05-06 00:33 | 25.06158 | -77.31241 | 11516 ft | 226 kts | 305° |
| 2026-05-06 00:33 | 25.07147 | -77.32581 | 11217 ft | 225 kts | 305° |
| 2026-05-06 00:34 | 25.08133 | -77.33918 | 10921 ft | 223 kts | 305° |
| 2026-05-06 00:34 | 25.09112 | -77.35245 | 10615 ft | 222 kts | 305° |
| 2026-05-06 00:34 | 25.10086 | -77.36566 | 10329 ft | 221 kts | 305° |
| 2026-05-06 00:34 | 25.11055 | -77.37880 | 10041 ft | 220 kts | 305° |
| 2026-05-06 00:35 | 25.12025 | -77.39197 | 9736 ft | 219 kts | 305° |
| 2026-05-06 00:35 | 25.12974 | -77.40486 | 9419 ft | 218 kts | 305° |
| 2026-05-06 00:35 | 25.13922 | -77.41772 | 9107 ft | 210 kts | 305° |
| 2026-05-06 00:35 | 25.14852 | -77.43035 | 8480 ft | 214 kts | 305° |
| 2026-05-06 00:36 | 25.15793 | -77.44318 | 7911 ft | 215 kts | 306° |
| 2026-05-06 00:36 | 25.16734 | -77.45599 | 7381 ft | 214 kts | 306° |
| 2026-05-06 00:36 | 25.17669 | -77.46871 | 6871 ft | 213 kts | 306° |
| 2026-05-06 00:36 | 25.18603 | -77.48142 | 6385 ft | 212 kts | 307° |
| 2026-05-06 00:37 | 25.19533 | -77.49409 | 5796 ft | 212 kts | 307° |
| 2026-05-06 00:37 | 25.20450 | -77.50658 | 5241 ft | 211 kts | 307° |
| 2026-05-06 00:37 | 25.21377 | -77.51921 | 4655 ft | 212 kts | 307° |
| 2026-05-06 00:37 | 25.22304 | -77.53177 | 4081 ft | 210 kts | 308° |
| 2026-05-06 00:38 | 25.23220 | -77.54415 | 3525 ft | 207 kts | 304° |
| 2026-05-06 00:38 | 25.24056 | -77.55698 | 2963 ft | 205 kts | 306° |
| 2026-05-06 00:38 | 25.24970 | -77.56904 | 2416 ft | 203 kts | 306° |
| 2026-05-06 00:38 | 25.25474 | -77.58320 | 1846 ft | 201 kts | 270° |
| 2026-05-06 00:39 | 25.24921 | -77.59614 | 1677 ft | 189 kts | 215° |
| 2026-05-06 00:39 | 25.23616 | -77.60078 | 1980 ft | 205 kts | 189° |
| 2026-05-06 00:39 | 25.22164 | -77.60183 | 1997 ft | 209 kts | 182° |
| 2026-05-06 00:39 | 25.20755 | -77.60278 | 1991 ft | 198 kts | 189° |
| 2026-05-06 00:40 | 25.19422 | -77.60509 | 1996 ft | 191 kts | 186° |
| 2026-05-06 00:40 | 25.18116 | -77.60424 | 2000 ft | 190 kts | 165° |
| 2026-05-06 00:40 | 25.16984 | -77.59669 | 1997 ft | 191 kts | 141° |
| 2026-05-06 00:40 | 25.15997 | -77.58719 | 1996 ft | 183 kts | 140° |
| 2026-05-06 00:41 | 25.14985 | -77.57933 | 1955 ft | 174 kts | 151° |
| 2026-05-06 00:41 | 25.13991 | -77.57205 | 2010 ft | 183 kts | 142° |
| 2026-05-06 00:41 | 25.13037 | -77.56233 | 2004 ft | 184 kts | 135° |
| 2026-05-06 00:41 | 25.12133 | -77.55243 | 2004 ft | 183 kts | 137° |
| 2026-05-06 00:42 | 25.11228 | -77.54250 | 1989 ft | 185 kts | 136° |
| 2026-05-06 00:42 | 25.10347 | -77.53276 | 1873 ft | 170 kts | 136° |
| 2026-05-06 00:42 | 25.09547 | -77.52400 | 1786 ft | 151 kts | 136° |
| 2026-05-06 00:42 | 25.08951 | -77.51409 | 1948 ft | 172 kts | 113° |
| 2026-05-06 00:43 | 25.08685 | -77.50015 | 2099 ft | 205 kts | 93° |
| 2026-05-06 00:43 | 25.08792 | -77.48426 | 2020 ft | 198 kts | 79° |
| 2026-05-06 00:43 | 25.09244 | -77.47132 | 2092 ft | 167 kts | 53° |
| 2026-05-06 00:43 | 25.09993 | -77.46268 | 2102 ft | 147 kts | 41° |
| 2026-05-06 00:44 | 25.10687 | -77.45452 | 1906 ft | 146 kts | 48° |
| 2026-05-06 00:44 | 25.11320 | -77.44597 | 1719 ft | 144 kts | 52° |
| 2026-05-06 00:44 | 25.11946 | -77.43714 | 1882 ft | 164 kts | 48° |
| 2026-05-06 00:44 | 25.12829 | -77.42711 | 2064 ft | 198 kts | 45° |
| 2026-05-06 00:45 | 25.13841 | -77.41519 | 1979 ft | 213 kts | 46° |
| 2026-05-06 00:45 | 25.14892 | -77.40274 | 1999 ft | 229 kts | 46° |
| 2026-05-06 00:45 | 25.16026 | -77.38988 | 1997 ft | 237 kts | 37° |
| 2026-05-06 00:45 | 25.17478 | -77.38208 | 2004 ft | 231 kts | 15° |
| 2026-05-06 00:46 | 25.19042 | -77.38118 | 2002 ft | 224 kts | 343° |
| 2026-05-06 00:46 | 25.20335 | -77.38936 | 2000 ft | 209 kts | 309° |
| 2026-05-06 00:46 | 25.20905 | -77.40309 | 1994 ft | 194 kts | 272° |
| 2026-05-06 00:46 | 25.20601 | -77.41754 | 1997 ft | 194 kts | 236° |
| 2026-05-06 00:47 | 25.19695 | -77.42784 | 2006 ft | 176 kts | 221° |
| 2026-05-06 00:47 | 25.18810 | -77.43613 | 1996 ft | 163 kts | 221° |
| 2026-05-06 00:47 | 25.17990 | -77.44416 | 1990 ft | 152 kts | 232° |
| 2026-05-06 00:47 | 25.17744 | -77.45513 | 2256 ft | 155 kts | 284° |
| 2026-05-06 00:48 | 25.18347 | -77.46458 | 3053 ft | 151 kts | 319° |
| 2026-05-06 00:48 | 25.19169 | -77.47182 | 3848 ft | 158 kts | 320° |
| 2026-05-06 00:48 | 25.20150 | -77.48020 | 3673 ft | 185 kts | 321° |
| 2026-05-06 00:48 | 25.21191 | -77.48871 | 3320 ft | 187 kts | 323° |
| 2026-05-06 00:49 | 25.22217 | -77.49705 | 3173 ft | 175 kts | 321° |
| 2026-05-06 00:49 | 25.23129 | -77.50471 | 3111 ft | 161 kts | 321° |
| 2026-05-06 00:49 | 25.24028 | -77.51225 | 2814 ft | 164 kts | 321° |
| 2026-05-06 00:49 | 25.24976 | -77.52017 | 2333 ft | 178 kts | 321° |
| 2026-05-06 00:50 | 25.25963 | -77.52846 | 2068 ft | 181 kts | 321° |
| 2026-05-06 00:50 | 25.26988 | -77.53710 | 2000 ft | 185 kts | 321° |
| 2026-05-06 00:50 | 25.28009 | -77.54574 | 1992 ft | 182 kts | 321° |
| 2026-05-06 00:50 | 25.28998 | -77.55411 | 1993 ft | 178 kts | 321° |
| 2026-05-06 00:51 | 25.29973 | -77.56236 | 2001 ft | 180 kts | 321° |
| 2026-05-06 00:51 | 25.30961 | -77.57094 | 1994 ft | 181 kts | 315° |
| 2026-05-06 00:51 | 25.31517 | -77.58309 | 2002 ft | 180 kts | 278° |
| 2026-05-06 00:51 | 25.31347 | -77.59639 | 1991 ft | 174 kts | 242° |
| 2026-05-06 00:52 | 25.30465 | -77.60503 | 2005 ft | 177 kts | 201° |
| 2026-05-06 00:52 | 25.29222 | -77.60519 | 2014 ft | 186 kts | 167° |
| 2026-05-06 00:52 | 25.28015 | -77.60197 | 2010 ft | 177 kts | 168° |
| 2026-05-06 00:52 | 25.26850 | -77.59896 | 2070 ft | 163 kts | 167° |
| 2026-05-06 00:53 | 25.25783 | -77.59394 | 2004 ft | 171 kts | 146° |